sensor_id;sensor_type;location;lat;lon;timestamp;pressure;altitude;pressure_sealevel;temperature;humidity
31717;BME280;18301;51.076;17.046;2023-03-25T00:00:23;99142.34;;;12.33;68.18
31717;BME280;18301;51.076;17.046;2023-03-25T00:05:24;99137.56;;;12.27;67.95
31717;BME280;18301;51.076;17.046;2023-03-25T00:10:26;99131.59;;;12.23;68.21
31717;BME280;18301;51.076;17.046;2023-03-25T00:15:28;99132.44;;;12.24;68.25
31717;BME280;18301;51.076;17.046;2023-03-25T00:20:30;99120.69;;;12.15;68.38
31717;BME280;18301;51.076;17.046;2023-03-25T00:25:32;99111.97;;;12.21;68.48
31717;BME280;18301;51.076;17.046;2023-03-25T00:30:36;99101.25;;;12.11;68.56
31717;BME280;18301;51.076;17.046;2023-03-25T00:35:39;99097.53;;;12.12;68.36
31717;BME280;18301;51.076;17.046;2023-03-25T00:40:45;99090.72;;;12.08;68.41
31717;BME280;18301;51.076;17.046;2023-03-25T00:45:54;99092.97;;;11.95;68.77
31717;BME280;18301;51.076;17.046;2023-03-25T00:50:55;99109.03;;;11.96;68.64
31717;BME280;18301;51.076;17.046;2023-03-25T00:55:57;99107.41;;;11.86;68.95
31717;BME280;18301;51.076;17.046;2023-03-25T01:00:58;99108.31;;;11.94;68.71
31717;BME280;18301;51.076;17.046;2023-03-25T01:06:00;99117.06;;;11.88;68.88
31717;BME280;18301;51.076;17.046;2023-03-25T01:11:01;99106.53;;;11.85;68.81
31717;BME280;18301;51.076;17.046;2023-03-25T01:16:05;99099.59;;;11.83;68.88
31717;BME280;18301;51.076;17.046;2023-03-25T01:21:07;99089.38;;;11.77;69.12
31717;BME280;18301;51.076;17.046;2023-03-25T01:26:09;99094.09;;;11.74;68.95
31717;BME280;18301;51.076;17.046;2023-03-25T01:31:13;99094.38;;;11.71;69.29
31717;BME280;18301;51.076;17.046;2023-03-25T01:36:16;99088.28;;;11.69;69.30
31717;BME280;18301;51.076;17.046;2023-03-25T01:41:18;99086.03;;;11.65;69.71
31717;BME280;18301;51.076;17.046;2023-03-25T01:46:19;99075.78;;;11.68;69.38
31717;BME280;18301;51.076;17.046;2023-03-25T01:51:23;99071.06;;;11.70;69.54
31717;BME280;18301;51.076;17.046;2023-03-25T01:56:33;99067.38;;;11.71;69.48
31717;BME280;18301;51.076;17.046;2023-03-25T02:01:37;99063.09;;;11.69;69.56
31717;BME280;18301;51.076;17.046;2023-03-25T02:06:44;99055.19;;;11.67;69.25
31717;BME280;18301;51.076;17.046;2023-03-25T02:11:47;99053.44;;;11.66;69.46
31717;BME280;18301;51.076;17.046;2023-03-25T02:38:53;99044.06;;;11.25;70.18
31717;BME280;18301;51.076;17.046;2023-03-25T02:44:35;99048.91;;;11.21;70.09
31717;BME280;18301;51.076;17.046;2023-03-25T02:49:43;99037.66;;;11.26;70.35
31717;BME280;18301;51.076;17.046;2023-03-25T02:54:47;99047.41;;;11.37;70.40
31717;BME280;18301;51.076;17.046;2023-03-25T02:59:51;99049.41;;;11.35;70.02
31717;BME280;18301;51.076;17.046;2023-03-25T03:04:55;99052.28;;;11.33;70.25
31717;BME280;18301;51.076;17.046;2023-03-25T03:15:36;99046.41;;;11.10;70.06
31717;BME280;18301;51.076;17.046;2023-03-25T03:26:57;99053.00;;;10.98;70.28
31717;BME280;18301;51.076;17.046;2023-03-25T03:32:09;99047.41;;;10.81;70.70
31717;BME280;18301;51.076;17.046;2023-03-25T03:37:27;99071.00;;;10.70;71.06
31717;BME280;18301;51.076;17.046;2023-03-25T03:42:38;99062.16;;;10.77;71.06
31717;BME280;18301;51.076;17.046;2023-03-25T03:47:45;99054.78;;;10.79;71.04
31717;BME280;18301;51.076;17.046;2023-03-25T03:52:53;99061.28;;;10.87;71.26
31717;BME280;18301;51.076;17.046;2023-03-25T03:58:15;99066.97;;;10.83;71.26
31717;BME280;18301;51.076;17.046;2023-03-25T04:03:27;99071.13;;;10.78;71.19
31717;BME280;18301;51.076;17.046;2023-03-25T04:08:33;99063.16;;;10.76;71.23
31717;BME280;18301;51.076;17.046;2023-03-25T04:13:40;99066.44;;;10.70;71.01
31717;BME280;18301;51.076;17.046;2023-03-25T04:18:44;99065.94;;;10.57;71.79
31717;BME280;18301;51.076;17.046;2023-03-25T04:23:48;99068.50;;;10.49;71.63
31717;BME280;18301;51.076;17.046;2023-03-25T04:28:50;99068.19;;;10.52;71.55
31717;BME280;18301;51.076;17.046;2023-03-25T04:33:51;99066.97;;;10.36;71.94
31717;BME280;18301;51.076;17.046;2023-03-25T04:38:54;99071.66;;;10.34;72.48
31717;BME280;18301;51.076;17.046;2023-03-25T04:43:56;99073.34;;;10.35;72.46
31717;BME280;18301;51.076;17.046;2023-03-25T04:48:58;99077.59;;;10.48;72.24
31717;BME280;18301;51.076;17.046;2023-03-25T04:54:00;99079.28;;;10.49;71.88
31717;BME280;18301;51.076;17.046;2023-03-25T04:59:02;99081.69;;;10.52;72.07
31717;BME280;18301;51.076;17.046;2023-03-25T05:04:04;99084.38;;;10.52;71.98
31717;BME280;18301;51.076;17.046;2023-03-25T05:09:11;99071.63;;;10.54;71.95
31717;BME280;18301;51.076;17.046;2023-03-25T05:14:16;99076.16;;;10.53;72.19
31717;BME280;18301;51.076;17.046;2023-03-25T05:19:18;99083.53;;;10.51;72.34
31717;BME280;18301;51.076;17.046;2023-03-25T05:24:21;99084.38;;;10.52;72.62
31717;BME280;18301;51.076;17.046;2023-03-25T05:29:22;99082.41;;;10.54;72.74
31717;BME280;18301;51.076;17.046;2023-03-25T05:34:24;99068.63;;;10.57;72.39
31717;BME280;18301;51.076;17.046;2023-03-25T05:39:26;99075.59;;;10.59;72.54
31717;BME280;18301;51.076;17.046;2023-03-25T05:44:27;99072.78;;;10.42;73.15
31717;BME280;18301;51.076;17.046;2023-03-25T05:49:28;99074.72;;;10.49;72.90
31717;BME280;18301;51.076;17.046;2023-03-25T05:54:30;99077.69;;;10.56;73.47
31717;BME280;18301;51.076;17.046;2023-03-25T05:59:33;99081.91;;;10.78;73.47
31717;BME280;18301;51.076;17.046;2023-03-25T06:04:34;99090.06;;;11.05;72.18
31717;BME280;18301;51.076;17.046;2023-03-25T06:09:41;99102.38;;;11.18;72.41
31717;BME280;18301;51.076;17.046;2023-03-25T06:14:47;99101.13;;;11.40;71.84
31717;BME280;18301;51.076;17.046;2023-03-25T06:19:50;99091.09;;;11.50;72.06
31717;BME280;18301;51.076;17.046;2023-03-25T06:24:51;99082.16;;;11.95;71.09
31717;BME280;18301;51.076;17.046;2023-03-25T06:29:53;99084.09;;;12.20;69.83
31717;BME280;18301;51.076;17.046;2023-03-25T06:34:54;99078.94;;;12.53;69.20
31717;BME280;18301;51.076;17.046;2023-03-25T06:39:56;99093.91;;;12.65;68.54
31717;BME280;18301;51.076;17.046;2023-03-25T06:44:59;99085.63;;;12.67;69.27
31717;BME280;18301;51.076;17.046;2023-03-25T06:50:05;99078.53;;;12.66;69.33
31717;BME280;18301;51.076;17.046;2023-03-25T06:55:07;99087.50;;;12.49;68.94
31717;BME280;18301;51.076;17.046;2023-03-25T07:00:09;99091.97;;;12.32;69.49
31717;BME280;18301;51.076;17.046;2023-03-25T07:05:14;99087.50;;;12.23;72.08
31717;BME280;18301;51.076;17.046;2023-03-25T07:10:15;99081.16;;;12.14;72.42
31717;BME280;18301;51.076;17.046;2023-03-25T07:15:17;99080.94;;;12.07;74.01
31717;BME280;18301;51.076;17.046;2023-03-25T07:20:18;99083.63;;;12.07;73.73
31717;BME280;18301;51.076;17.046;2023-03-25T07:25:20;99082.63;;;12.08;75.48
31717;BME280;18301;51.076;17.046;2023-03-25T07:30:22;99087.63;;;12.03;77.09
31717;BME280;18301;51.076;17.046;2023-03-25T07:35:24;99092.72;;;12.06;77.36
31717;BME280;18301;51.076;17.046;2023-03-25T07:40:25;99084.47;;;12.08;76.60
31717;BME280;18301;51.076;17.046;2023-03-25T07:45:27;99084.25;;;12.01;76.45
31717;BME280;18301;51.076;17.046;2023-03-25T07:50:28;99093.84;;;12.13;74.75
31717;BME280;18301;51.076;17.046;2023-03-25T07:55:30;99098.22;;;12.32;74.56
31717;BME280;18301;51.076;17.046;2023-03-25T08:00:32;99090.06;;;12.50;72.44
31717;BME280;18301;51.076;17.046;2023-03-25T08:05:33;99089.25;;;12.76;71.49
31717;BME280;18301;51.076;17.046;2023-03-25T08:10:36;99085.63;;;12.93;69.27
31717;BME280;18301;51.076;17.046;2023-03-25T08:15:38;99088.66;;;12.90;69.62
31717;BME280;18301;51.076;17.046;2023-03-25T08:20:40;99092.81;;;13.10;68.42
31717;BME280;18301;51.076;17.046;2023-03-25T08:25:41;99088.31;;;13.70;67.46
31717;BME280;18301;51.076;17.046;2023-03-25T08:30:43;99094.81;;;13.85;64.72
31717;BME280;18301;51.076;17.046;2023-03-25T08:35:44;99086.38;;;14.13;63.75
31717;BME280;18301;51.076;17.046;2023-03-25T08:40:47;99083.13;;;13.93;63.18
31717;BME280;18301;51.076;17.046;2023-03-25T08:45:48;99103.88;;;13.59;64.20
31717;BME280;18301;51.076;17.046;2023-03-25T08:50:50;99091.03;;;13.62;64.24
31717;BME280;18301;51.076;17.046;2023-03-25T08:55:53;99090.03;;;13.71;64.85
31717;BME280;18301;51.076;17.046;2023-03-25T09:00:56;99086.66;;;13.85;62.90
31717;BME280;18301;51.076;17.046;2023-03-25T09:06:02;99082.56;;;13.73;64.18
31717;BME280;18301;51.076;17.046;2023-03-25T09:11:04;99077.47;;;13.70;63.91
31717;BME280;18301;51.076;17.046;2023-03-25T09:16:07;99074.28;;;13.74;63.96
31717;BME280;18301;51.076;17.046;2023-03-25T09:21:08;99078.13;;;13.64;62.77
31717;BME280;18301;51.076;17.046;2023-03-25T09:26:10;99072.81;;;13.96;62.24
31717;BME280;18301;51.076;17.046;2023-03-25T09:31:12;99077.56;;;14.02;62.43
31717;BME280;18301;51.076;17.046;2023-03-25T09:36:15;99071.81;;;14.55;61.22
31717;BME280;18301;51.076;17.046;2023-03-25T09:41:29;99070.47;;;14.67;59.96
31717;BME280;18301;51.076;17.046;2023-03-25T09:46:36;99070.44;;;14.50;59.66
31717;BME280;18301;51.076;17.046;2023-03-25T09:51:39;99076.53;;;14.77;56.63
31717;BME280;18301;51.076;17.046;2023-03-25T09:56:42;99075.22;;;14.32;56.84
31717;BME280;18301;51.076;17.046;2023-03-25T10:02:10;99061.28;;;14.27;54.80
31717;BME280;18301;51.076;17.046;2023-03-25T10:23:40;99066.72;;;14.19;53.29
31717;BME280;18301;51.076;17.046;2023-03-25T10:28:46;99052.97;;;14.37;54.16
31717;BME280;18301;51.076;17.046;2023-03-25T10:33:54;99056.88;;;14.59;53.01
31717;BME280;18301;51.076;17.046;2023-03-25T10:38:58;99038.91;;;14.66;53.27
31717;BME280;18301;51.076;17.046;2023-03-25T10:44:09;99041.94;;;14.71;53.45
31717;BME280;18301;51.076;17.046;2023-03-25T10:49:30;99039.84;;;14.98;53.44
31717;BME280;18301;51.076;17.046;2023-03-25T10:54:35;99032.03;;;14.94;53.80
31717;BME280;18301;51.076;17.046;2023-03-25T10:59:43;99034.47;;;14.81;51.46
31717;BME280;18301;51.076;17.046;2023-03-25T11:04:51;99037.72;;;14.60;51.51
31717;BME280;18301;51.076;17.046;2023-03-25T11:09:53;99035.19;;;14.26;53.52
31717;BME280;18301;51.076;17.046;2023-03-25T11:14:57;99024.31;;;14.42;53.67
31717;BME280;18301;51.076;17.046;2023-03-25T11:20:04;99004.94;;;14.70;52.71
31717;BME280;18301;51.076;17.046;2023-03-25T11:25:25;99001.09;;;15.04;51.90
31717;BME280;18301;51.076;17.046;2023-03-25T11:30:29;99014.72;;;15.35;50.47
31717;BME280;18301;51.076;17.046;2023-03-25T11:35:36;99007.72;;;15.40;48.84
31717;BME280;18301;51.076;17.046;2023-03-25T11:40:49;99006.03;;;15.00;50.38
31717;BME280;18301;51.076;17.046;2023-03-25T11:45:51;99004.19;;;15.32;50.40
31717;BME280;18301;51.076;17.046;2023-03-25T11:50:58;99001.53;;;15.55;48.71
31717;BME280;18301;51.076;17.046;2023-03-25T11:56:10;99002.78;;;15.75;47.64
31717;BME280;18301;51.076;17.046;2023-03-25T12:06:23;99019.91;;;15.45;48.16
31717;BME280;18301;51.076;17.046;2023-03-25T12:11:29;99031.94;;;15.19;49.20
31717;BME280;18301;51.076;17.046;2023-03-25T12:17:43;99039.56;;;14.68;52.83
31717;BME280;18301;51.076;17.046;2023-03-25T12:32:44;99066.88;;;13.34;59.36
31717;BME280;18301;51.076;17.046;2023-03-25T12:38:12;99090.41;;;12.99;62.82
31717;BME280;18301;51.076;17.046;2023-03-25T12:54:44;99091.50;;;12.18;68.85
31717;BME280;18301;51.076;17.046;2023-03-25T13:00:12;99082.41;;;12.46;70.79
31717;BME280;18301;51.076;17.046;2023-03-25T13:05:19;99085.09;;;12.63;70.65
31717;BME280;18301;51.076;17.046;2023-03-25T13:10:29;99073.53;;;12.79;70.79
31717;BME280;18301;51.076;17.046;2023-03-25T13:15:43;99075.59;;;13.20;67.23
31717;BME280;18301;51.076;17.046;2023-03-25T13:21:00;99066.38;;;13.30;66.65
31717;BME280;18301;51.076;17.046;2023-03-25T13:26:17;99054.75;;;13.46;65.95
31717;BME280;18301;51.076;17.046;2023-03-25T13:31:23;99051.78;;;13.90;63.65
31717;BME280;18301;51.076;17.046;2023-03-25T13:36:33;99048.03;;;13.83;63.71
31717;BME280;18301;51.076;17.046;2023-03-25T13:41:41;99036.53;;;14.30;61.57
31717;BME280;18301;51.076;17.046;2023-03-25T13:47:12;99050.44;;;14.02;61.43
31717;BME280;18301;51.076;17.046;2023-03-25T13:52:16;99054.78;;;13.79;61.41
31717;BME280;18301;51.076;17.046;2023-03-25T13:57:39;99061.19;;;13.53;62.60
31717;BME280;18301;51.076;17.046;2023-03-25T14:08:29;99055.25;;;13.16;63.59
31717;BME280;18301;51.076;17.046;2023-03-25T14:13:39;99047.94;;;13.42;62.94
31717;BME280;18301;51.076;17.046;2023-03-25T14:18:45;99034.28;;;13.68;63.58
31717;BME280;18301;51.076;17.046;2023-03-25T14:23:59;99043.31;;;14.01;60.77
31717;BME280;18301;51.076;17.046;2023-03-25T14:29:07;99034.16;;;14.02;56.69
31717;BME280;18301;51.076;17.046;2023-03-25T14:44:51;99042.56;;;13.58;56.85
31717;BME280;18301;51.076;17.046;2023-03-25T14:55:27;99057.75;;;13.35;58.09
31717;BME280;18301;51.076;17.046;2023-03-25T15:00:32;99056.38;;;13.31;57.54
31717;BME280;18301;51.076;17.046;2023-03-25T15:05:35;99059.75;;;13.25;57.51
31717;BME280;18301;51.076;17.046;2023-03-25T15:10:40;99071.53;;;13.24;58.06
31717;BME280;18301;51.076;17.046;2023-03-25T15:20:47;99107.69;;;12.54;62.39
31717;BME280;18301;51.076;17.046;2023-03-25T15:25:50;99078.06;;;11.91;65.79
31717;BME280;18301;51.076;17.046;2023-03-25T15:37:07;99076.03;;;10.92;71.63
31717;BME280;18301;51.076;17.046;2023-03-25T15:47:23;99051.38;;;10.77;74.95
31717;BME280;18301;51.076;17.046;2023-03-25T15:52:54;99051.59;;;10.94;75.47
31717;BME280;18301;51.076;17.046;2023-03-25T15:58:11;99038.75;;;10.78;76.38
31717;BME280;18301;51.076;17.046;2023-03-25T16:03:18;99039.34;;;10.72;75.44
31717;BME280;18301;51.076;17.046;2023-03-25T16:08:26;99015.66;;;10.56;75.82
31717;BME280;18301;51.076;17.046;2023-03-25T16:13:28;99023.66;;;10.48;76.27
31717;BME280;18301;51.076;17.046;2023-03-25T16:18:29;99022.00;;;10.27;77.44
31717;BME280;18301;51.076;17.046;2023-03-25T16:23:31;99027.66;;;10.34;76.94
31717;BME280;18301;51.076;17.046;2023-03-25T16:28:38;99031.19;;;10.15;78.01
31717;BME280;18301;51.076;17.046;2023-03-25T16:33:40;99027.09;;;10.21;77.85
31717;BME280;18301;51.076;17.046;2023-03-25T16:38:43;99032.78;;;10.27;77.31
31717;BME280;18301;51.076;17.046;2023-03-25T16:43:44;99025.81;;;10.34;77.27
31717;BME280;18301;51.076;17.046;2023-03-25T16:48:49;99029.94;;;10.39;75.57
31717;BME280;18301;51.076;17.046;2023-03-25T16:53:52;99031.28;;;10.52;75.28
31717;BME280;18301;51.076;17.046;2023-03-25T16:59:04;99027.66;;;10.44;75.82
31717;BME280;18301;51.076;17.046;2023-03-25T17:04:18;99020.13;;;10.28;74.86
31717;BME280;18301;51.076;17.046;2023-03-25T17:09:25;99017.44;;;10.38;74.25
31717;BME280;18301;51.076;17.046;2023-03-25T17:14:37;99014.47;;;10.41;74.32
31717;BME280;18301;51.076;17.046;2023-03-25T17:19:45;99019.44;;;10.35;73.68
31717;BME280;18301;51.076;17.046;2023-03-25T17:24:57;99023.94;;;10.45;73.77
31717;BME280;18301;51.076;17.046;2023-03-25T17:30:16;99028.75;;;10.51;73.72
31717;BME280;18301;51.076;17.046;2023-03-25T17:35:22;99037.53;;;10.53;73.47
31717;BME280;18301;51.076;17.046;2023-03-25T17:40:26;99029.94;;;10.39;73.27
31717;BME280;18301;51.076;17.046;2023-03-25T17:45:28;99036.63;;;10.34;73.34
31717;BME280;18301;51.076;17.046;2023-03-25T17:50:30;99033.31;;;10.31;73.35
31717;BME280;18301;51.076;17.046;2023-03-25T17:55:33;99029.34;;;10.15;73.72
31717;BME280;18301;51.076;17.046;2023-03-25T18:00:35;99029.25;;;9.98;74.24
31717;BME280;18301;51.076;17.046;2023-03-25T18:05:38;99024.84;;;9.77;74.62
31717;BME280;18301;51.076;17.046;2023-03-25T18:10:41;99036.75;;;9.84;74.27
31717;BME280;18301;51.076;17.046;2023-03-25T18:15:43;99040.56;;;9.82;74.41
31717;BME280;18301;51.076;17.046;2023-03-25T18:20:44;99036.47;;;9.68;74.68
31717;BME280;18301;51.076;17.046;2023-03-25T18:25:47;99033.50;;;9.71;74.32
31717;BME280;18301;51.076;17.046;2023-03-25T18:30:54;99045.13;;;9.62;74.24
31717;BME280;18301;51.076;17.046;2023-03-25T18:35:55;99065.81;;;9.52;75.46
31717;BME280;18301;51.076;17.046;2023-03-25T18:40:59;99081.41;;;9.58;75.08
31717;BME280;18301;51.076;17.046;2023-03-25T18:46:01;99087.25;;;9.92;74.07
31717;BME280;18301;51.076;17.046;2023-03-25T18:51:03;99089.22;;;10.00;73.19
31717;BME280;18301;51.076;17.046;2023-03-25T18:56:05;99097.47;;;10.47;71.69
31717;BME280;18301;51.076;17.046;2023-03-25T19:01:11;99098.88;;;10.51;70.77
31717;BME280;18301;51.076;17.046;2023-03-25T19:06:13;99094.22;;;10.33;71.26
31717;BME280;18301;51.076;17.046;2023-03-25T19:11:15;99106.56;;;10.26;71.43
31717;BME280;18301;51.076;17.046;2023-03-25T19:16:22;99094.06;;;10.25;71.64
31717;BME280;18301;51.076;17.046;2023-03-25T19:21:24;99096.03;;;10.43;70.67
31717;BME280;18301;51.076;17.046;2023-03-25T19:26:25;99094.63;;;10.19;71.70
31717;BME280;18301;51.076;17.046;2023-03-25T19:31:27;99102.00;;;10.17;72.06
31717;BME280;18301;51.076;17.046;2023-03-25T19:36:30;99109.66;;;10.12;71.82
31717;BME280;18301;51.076;17.046;2023-03-25T19:41:35;99103.28;;;10.13;71.51
31717;BME280;18301;51.076;17.046;2023-03-25T19:46:42;99096.47;;;10.09;71.85
31717;BME280;18301;51.076;17.046;2023-03-25T19:51:44;99092.34;;;10.05;71.79
31717;BME280;18301;51.076;17.046;2023-03-25T19:56:45;99102.28;;;10.04;71.77
31717;BME280;18301;51.076;17.046;2023-03-25T20:01:47;99100.31;;;10.16;71.24
31717;BME280;18301;51.076;17.046;2023-03-25T20:06:48;99096.06;;;10.13;70.86
31717;BME280;18301;51.076;17.046;2023-03-25T20:11:50;99092.09;;;9.88;71.08
31717;BME280;18301;51.076;17.046;2023-03-25T20:16:51;99097.59;;;9.87;71.20
31717;BME280;18301;51.076;17.046;2023-03-25T20:21:53;99095.75;;;9.87;71.02
31717;BME280;18301;51.076;17.046;2023-03-25T20:26:54;99106.22;;;9.71;71.16
31717;BME280;18301;51.076;17.046;2023-03-25T20:31:56;99106.78;;;9.75;70.67
31717;BME280;18301;51.076;17.046;2023-03-25T20:36:57;99100.13;;;9.69;70.33
31717;BME280;18301;51.076;17.046;2023-03-25T20:41:59;99104.81;;;9.67;70.67
31717;BME280;18301;51.076;17.046;2023-03-25T20:47:01;99101.41;;;9.84;70.29
31717;BME280;18301;51.076;17.046;2023-03-25T20:52:03;99087.22;;;9.73;68.95
31717;BME280;18301;51.076;17.046;2023-03-25T20:57:05;99093.34;;;9.84;69.04
31717;BME280;18301;51.076;17.046;2023-03-25T21:02:09;99079.28;;;9.71;69.73
31717;BME280;18301;51.076;17.046;2023-03-25T21:07:12;99094.91;;;9.97;68.87
31717;BME280;18301;51.076;17.046;2023-03-25T21:12:14;99090.50;;;10.05;68.88
31717;BME280;18301;51.076;17.046;2023-03-25T21:17:15;99094.78;;;9.98;68.98
31717;BME280;18301;51.076;17.046;2023-03-25T21:22:17;99097.31;;;10.09;68.92
31717;BME280;18301;51.076;17.046;2023-03-25T21:27:18;99091.06;;;10.09;68.65
31717;BME280;18301;51.076;17.046;2023-03-25T21:32:20;99106.28;;;10.10;68.75
31717;BME280;18301;51.076;17.046;2023-03-25T21:37:22;99102.56;;;10.01;69.11
31717;BME280;18301;51.076;17.046;2023-03-25T21:42:23;99092.63;;;10.21;68.06
31717;BME280;18301;51.076;17.046;2023-03-25T21:47:25;99083.84;;;10.19;68.40
31717;BME280;18301;51.076;17.046;2023-03-25T21:52:26;99090.09;;;10.10;68.08
31717;BME280;18301;51.076;17.046;2023-03-25T21:57:28;99090.38;;;10.07;68.18
31717;BME280;18301;51.076;17.046;2023-03-25T22:02:30;99084.13;;;9.97;68.53
31717;BME280;18301;51.076;17.046;2023-03-25T22:07:32;99088.38;;;9.89;69.03
31717;BME280;18301;51.076;17.046;2023-03-25T22:12:34;99094.91;;;10.06;68.19
31717;BME280;18301;51.076;17.046;2023-03-25T22:17:35;99076.47;;;10.11;67.73
31717;BME280;18301;51.076;17.046;2023-03-25T22:22:37;99070.81;;;9.85;68.57
31717;BME280;18301;51.076;17.046;2023-03-25T22:27:38;99068.97;;;9.96;68.09
31717;BME280;18301;51.076;17.046;2023-03-25T22:32:40;99054.06;;;10.11;67.35
31717;BME280;18301;51.076;17.046;2023-03-25T22:37:41;99064.38;;;10.15;67.07
31717;BME280;18301;51.076;17.046;2023-03-25T22:42:43;99073.78;;;10.02;67.65
31717;BME280;18301;51.076;17.046;2023-03-25T22:47:44;99062.44;;;10.08;67.28
31717;BME280;18301;51.076;17.046;2023-03-25T22:52:46;99066.81;;;10.09;66.77
31717;BME280;18301;51.076;17.046;2023-03-25T22:57:47;99053.47;;;10.17;66.42
31717;BME280;18301;51.076;17.046;2023-03-25T23:02:49;99057.19;;;9.97;66.96
31717;BME280;18301;51.076;17.046;2023-03-25T23:07:51;99059.56;;;10.09;66.51
31717;BME280;18301;51.076;17.046;2023-03-25T23:12:52;99058.31;;;9.84;67.57
31717;BME280;18301;51.076;17.046;2023-03-25T23:17:54;99062.56;;;9.67;68.09
31717;BME280;18301;51.076;17.046;2023-03-25T23:22:55;99054.31;;;9.50;68.69
31717;BME280;18301;51.076;17.046;2023-03-25T23:27:57;99058.31;;;9.65;68.62
31717;BME280;18301;51.076;17.046;2023-03-25T23:32:58;99050.50;;;9.52;68.66
31717;BME280;18301;51.076;17.046;2023-03-25T23:38:00;99045.84;;;9.64;68.13
31717;BME280;18301;51.076;17.046;2023-03-25T23:43:01;99034.63;;;9.68;67.89
31717;BME280;18301;51.076;17.046;2023-03-25T23:48:03;99035.03;;;9.44;69.31
31717;BME280;18301;51.076;17.046;2023-03-25T23:53:04;99030.19;;;9.48;69.15
31717;BME280;18301;51.076;17.046;2023-03-25T23:58:06;99039.84;;;9.51;68.73
